createdAt,value
2022-12-27T00:02:14.952Z,92.30
2022-12-27T00:05:57.354Z,92.30
2022-12-27T00:09:39.521Z,92.10
2022-12-27T00:13:23.869Z,92.00
2022-12-27T00:17:06.039Z,91.90
2022-12-27T00:20:48.135Z,92.00
2022-12-27T00:24:30.638Z,91.90
2022-12-27T00:28:13.354Z,91.90
2022-12-27T00:31:55.518Z,91.80
2022-12-27T00:35:40.015Z,91.80
2022-12-27T00:39:22.284Z,91.90
2022-12-27T00:43:05.279Z,91.90
2022-12-27T00:46:47.533Z,91.90
2022-12-27T00:50:35.248Z,91.90
2022-12-27T00:54:20.790Z,91.90
2022-12-27T00:58:03.307Z,92.00
2022-12-27T01:01:45.881Z,91.90
2022-12-27T01:05:28.403Z,91.90
2022-12-27T01:09:10.527Z,91.90
2022-12-27T01:12:54.315Z,91.90
2022-12-27T01:16:36.362Z,91.80
2022-12-27T01:20:19.397Z,91.70
2022-12-27T01:24:01.708Z,91.70
2022-12-27T01:27:43.880Z,91.70
2022-12-27T01:31:28.392Z,91.70
2022-12-27T01:35:10.663Z,91.70
2022-12-27T01:38:54.006Z,91.70
2022-12-27T01:42:55.077Z,91.70
2022-12-27T01:46:39.252Z,91.90
2022-12-27T01:50:33.476Z,91.90
2022-12-27T01:54:15.682Z,91.90
2022-12-27T01:58:20.654Z,91.90
2022-12-27T02:02:04.262Z,92.00
2022-12-27T02:05:46.678Z,92.20
2022-12-27T02:09:41.079Z,92.40
2022-12-27T02:13:25.435Z,92.80
2022-12-27T02:17:12.719Z,93.00
2022-12-27T02:21:06.662Z,93.20
2022-12-27T02:24:58.734Z,93.30
2022-12-27T02:29:05.787Z,93.20
2022-12-27T02:32:57.104Z,93.20
2022-12-27T02:36:42.355Z,93.30
2022-12-27T02:40:45.438Z,93.40
2022-12-27T02:44:46.137Z,93.50
2022-12-27T02:48:46.725Z,93.60
2022-12-27T02:53:05.121Z,93.60
2022-12-27T02:57:32.489Z,93.00
2022-12-27T03:02:11.492Z,92.70
2022-12-27T03:06:21.135Z,92.40
2022-12-27T03:10:45.182Z,92.60
2022-12-27T03:14:58.820Z,92.60
2022-12-27T03:19:02.895Z,92.40
2022-12-27T03:23:06.156Z,92.30
2022-12-27T03:26:50.929Z,92.40
2022-12-27T03:30:52.474Z,92.50
2022-12-27T03:34:40.525Z,92.60
2022-12-27T03:38:23.805Z,92.90
2022-12-27T03:42:30.266Z,93.00
2022-12-27T03:46:34.645Z,93.20
2022-12-27T03:50:23.661Z,93.20
2022-12-27T03:54:26.736Z,93.30
2022-12-27T03:58:09.163Z,93.30
2022-12-27T04:01:52.966Z,93.30
2022-12-27T04:05:35.300Z,93.30
2022-12-27T04:13:50.347Z,93.50
2022-12-27T04:17:51.181Z,93.60
2022-12-27T04:21:51.948Z,94.00
2022-12-27T04:25:52.807Z,94.00
2022-12-27T04:29:53.363Z,94.00
2022-12-27T04:33:54.025Z,94.10
2022-12-27T04:37:38.896Z,94.00
2022-12-27T04:41:39.638Z,94.00
2022-12-27T04:45:40.538Z,93.90
2022-12-27T04:49:44.314Z,93.90
2022-12-27T04:53:44.835Z,94.00
2022-12-27T04:57:27.978Z,93.80
2022-12-27T05:01:28.521Z,93.80
2022-12-27T05:05:11.745Z,93.80
2022-12-27T05:09:12.451Z,93.90
2022-12-27T05:13:13.282Z,93.80
2022-12-27T05:16:55.582Z,93.80
2022-12-27T05:20:37.615Z,93.90
2022-12-27T05:24:37.964Z,93.90
2022-12-27T05:28:20.169Z,93.90
2022-12-27T05:32:02.160Z,93.80
2022-12-27T05:35:44.307Z,94.00
2022-12-27T05:39:26.323Z,94.20
2022-12-27T05:43:08.886Z,94.30
2022-12-27T05:46:57.397Z,94.30
2022-12-27T05:50:39.596Z,94.40
2022-12-27T05:54:21.782Z,94.30
2022-12-27T05:58:04.198Z,94.40
2022-12-27T06:01:47.359Z,94.30
2022-12-27T06:05:30.071Z,94.40
2022-12-27T06:09:12.655Z,94.20
2022-12-27T06:12:55.198Z,94.20
2022-12-27T06:16:38.342Z,94.30
2022-12-27T06:20:20.598Z,94.40
2022-12-27T06:24:03.033Z,94.30
2022-12-27T06:27:45.217Z,94.40
2022-12-27T06:31:28.527Z,94.30
2022-12-27T06:35:11.782Z,94.20
2022-12-27T06:38:53.985Z,94.10
2022-12-27T06:42:37.170Z,94.00
2022-12-27T06:46:19.465Z,94.00
2022-12-27T06:50:01.690Z,93.90
2022-12-27T06:53:43.860Z,93.80
2022-12-27T06:57:26.215Z,93.80
2022-12-27T07:01:21.177Z,93.80
2022-12-27T07:05:03.302Z,93.90
2022-12-27T07:08:47.353Z,93.70
2022-12-27T07:12:33.278Z,93.70
2022-12-27T07:16:23.026Z,93.70
2022-12-27T07:20:06.074Z,93.70
2022-12-27T07:23:48.316Z,93.60
2022-12-27T07:27:33.115Z,93.50
2022-12-27T07:31:18.955Z,93.50
2022-12-27T07:35:01.014Z,93.50
2022-12-27T07:38:44.089Z,93.40
2022-12-27T07:42:27.243Z,93.40
2022-12-27T07:46:20.800Z,93.50
2022-12-27T07:50:04.242Z,93.70
2022-12-27T07:53:50.487Z,93.70
2022-12-27T07:57:34.208Z,93.80
2022-12-27T08:01:18.765Z,93.70
2022-12-27T08:05:00.939Z,93.70
2022-12-27T08:08:45.117Z,93.60
2022-12-27T08:12:28.187Z,93.60
2022-12-27T08:16:17.648Z,93.60
2022-12-27T08:19:59.806Z,93.60
2022-12-27T08:23:42.139Z,93.50
2022-12-27T08:27:25.352Z,93.50
2022-12-27T08:31:09.476Z,93.50
2022-12-27T08:34:51.619Z,93.50
2022-12-27T08:38:34.400Z,93.40
2022-12-27T08:42:16.670Z,93.40
2022-12-27T08:46:04.697Z,93.50
2022-12-27T08:49:47.082Z,93.60
2022-12-27T08:53:29.359Z,93.70
2022-12-27T08:57:11.686Z,93.80
2022-12-27T09:00:54.713Z,94.10
2022-12-27T09:04:37.848Z,94.30
2022-12-27T09:08:20.136Z,94.60
2022-12-27T09:12:04.074Z,94.80
2022-12-27T09:15:50.066Z,95.10
2022-12-27T09:19:32.142Z,95.30
2022-12-27T09:23:14.263Z,95.50
2022-12-27T09:26:56.492Z,95.70
2022-12-27T09:30:44.568Z,95.80
2022-12-27T09:34:26.683Z,96.00
2022-12-27T09:38:12.827Z,95.90
2022-12-27T09:46:14.911Z,96.00
2022-12-27T09:50:09.003Z,95.90
2022-12-27T09:54:06.269Z,95.70
2022-12-27T09:57:50.987Z,95.40
2022-12-27T10:01:37.229Z,95.40
2022-12-27T10:05:24.968Z,95.40
2022-12-27T10:09:32.872Z,95.40
2022-12-27T10:13:15.768Z,95.20
2022-12-27T10:17:26.689Z,95.50
2022-12-27T10:21:27.250Z,95.50
2022-12-27T10:25:14.701Z,95.20
2022-12-27T10:29:11.301Z,95.40
2022-12-27T10:32:55.354Z,95.40
2022-12-27T10:36:38.060Z,95.20
2022-12-27T10:40:49.248Z,95.30
2022-12-27T10:44:31.347Z,95.30
2022-12-27T10:48:25.109Z,95.10
2022-12-27T10:52:20.371Z,95.20
2022-12-27T10:56:21.336Z,95.00
2022-12-27T11:00:25.407Z,94.80
2022-12-27T11:04:20.723Z,94.40
2022-12-27T11:08:21.512Z,94.70
2022-12-27T11:12:19.045Z,94.70
2022-12-27T11:16:01.272Z,94.30
2022-12-27T11:19:47.998Z,94.50
2022-12-27T11:23:43.375Z,94.40
2022-12-27T11:27:29.227Z,94.20
2022-12-27T11:31:19.266Z,94.30
2022-12-27T11:35:06.654Z,94.30
2022-12-27T11:38:50.850Z,94.20
2022-12-27T11:42:41.259Z,94.20
2022-12-27T11:46:29.282Z,94.20
2022-12-27T11:50:50.662Z,94.30
2022-12-27T11:55:00.490Z,94.40
2022-12-27T11:59:17.411Z,94.60
2022-12-27T12:03:20.723Z,94.50
2022-12-27T12:07:28.189Z,94.90
2022-12-27T12:11:18.208Z,94.70
2022-12-27T12:15:25.419Z,95.00
2022-12-27T12:19:37.508Z,94.90
2022-12-27T12:23:53.412Z,95.00
2022-12-27T12:28:23.307Z,94.80
2022-12-27T12:32:31.273Z,95.00
2022-12-27T12:36:58.402Z,95.20
2022-12-27T12:41:21.276Z,95.00
2022-12-27T12:45:27.088Z,95.10
2022-12-27T12:49:34.115Z,95.30
2022-12-27T12:53:26.111Z,95.30
2022-12-27T12:57:56.465Z,94.90
2022-12-27T13:01:55.697Z,95.20
2022-12-27T13:06:05.873Z,95.40
2022-12-27T13:09:52.040Z,95.30
2022-12-27T13:14:21.944Z,95.50
2022-12-27T13:18:34.065Z,95.50
2022-12-27T13:23:07.462Z,95.40
2022-12-27T13:27:02.842Z,95.40
2022-12-27T13:31:33.876Z,95.50
2022-12-27T13:49:04.814Z,95.60
2022-12-27T13:53:00.087Z,95.60
2022-12-27T14:01:49.827Z,95.70
2022-12-27T14:14:26.104Z,95.70
2022-12-27T14:18:39.367Z,95.70
2022-12-27T14:26:54.837Z,95.80
2022-12-27T14:30:52.961Z,95.80
2022-12-27T14:35:10.883Z,95.80
2022-12-27T14:39:19.162Z,95.80
2022-12-27T14:43:42.951Z,95.80
2022-12-27T14:48:03.257Z,95.90
2022-12-27T14:52:18.073Z,95.80
2022-12-27T15:01:17.544Z,95.80
2022-12-27T15:05:18.466Z,95.80
2022-12-27T15:13:50.919Z,95.80
2022-12-27T15:17:48.179Z,95.90
2022-12-27T15:22:17.840Z,95.90
2022-12-27T15:26:27.147Z,95.90
2022-12-27T15:35:09.128Z,95.90
2022-12-27T15:38:57.383Z,95.90
2022-12-27T15:43:11.299Z,95.90
2022-12-27T15:47:25.803Z,96.00
2022-12-27T15:51:36.929Z,95.90
2022-12-27T16:00:13.800Z,95.90
2022-12-27T16:17:40.532Z,95.90
2022-12-27T16:21:25.615Z,96.00
2022-12-27T16:25:30.965Z,96.00
2022-12-27T16:29:17.259Z,96.00
2022-12-27T16:33:01.394Z,96.00
2022-12-27T16:36:51.830Z,96.00
2022-12-27T16:41:02.583Z,96.00
2022-12-27T16:45:06.784Z,95.90
2022-12-27T16:49:06.313Z,96.00
2022-12-27T16:53:25.004Z,95.90
2022-12-27T16:57:55.592Z,95.80
2022-12-27T17:01:43.370Z,95.80
2022-12-27T17:14:19.558Z,95.90
2022-12-27T17:18:11.671Z,96.00
2022-12-27T17:21:59.683Z,96.00
2022-12-27T17:30:07.591Z,96.10
2022-12-27T17:34:04.828Z,96.10
2022-12-27T17:38:04.254Z,96.10
2022-12-27T17:42:14.653Z,96.20
2022-12-27T17:46:31.876Z,96.30
2022-12-27T17:50:21.008Z,96.40
2022-12-27T17:54:45.009Z,96.30
2022-12-27T17:58:35.123Z,96.20
2022-12-27T18:02:39.690Z,96.30
2022-12-27T18:06:22.030Z,96.30
2022-12-27T18:10:22.851Z,96.30
2022-12-27T18:14:06.140Z,96.40
2022-12-27T18:18:03.498Z,96.40
2022-12-27T18:21:58.634Z,96.40
2022-12-27T18:25:52.708Z,96.40
2022-12-27T18:29:34.921Z,96.40
2022-12-27T18:33:17.624Z,96.40
2022-12-27T18:37:12.416Z,96.40
2022-12-27T18:41:09.576Z,96.50
2022-12-27T18:44:56.817Z,96.50
2022-12-27T18:48:42.597Z,96.40
2022-12-27T18:52:35.256Z,96.50
2022-12-27T18:56:29.958Z,96.50
2022-12-27T19:00:26.745Z,96.50
2022-12-27T19:04:14.927Z,96.50
2022-12-27T19:08:20.234Z,96.40
2022-12-27T19:12:09.208Z,96.30
2022-12-27T19:15:53.738Z,96.30
2022-12-27T19:19:37.197Z,96.40
2022-12-27T19:23:49.538Z,96.40
2022-12-27T19:27:31.918Z,96.50
2022-12-27T19:31:22.187Z,96.40
2022-12-27T19:35:06.438Z,96.40
2022-12-27T19:38:48.686Z,96.40
2022-12-27T19:42:34.189Z,96.40
2022-12-27T19:46:19.178Z,96.40
2022-12-27T19:50:01.319Z,96.40
2022-12-27T19:53:51.052Z,96.40
2022-12-27T19:57:38.768Z,96.40
2022-12-27T20:01:22.343Z,96.40
2022-12-27T20:05:08.303Z,96.40
2022-12-27T20:08:52.916Z,96.40
2022-12-27T20:12:43.071Z,96.40
2022-12-27T20:20:30.418Z,96.40
2022-12-27T20:24:15.317Z,96.40
2022-12-27T20:28:05.583Z,96.40
2022-12-27T20:31:49.828Z,96.40
2022-12-27T20:35:34.570Z,96.40
2022-12-27T20:39:17.338Z,96.50
2022-12-27T20:42:59.459Z,96.50
2022-12-27T20:46:41.870Z,96.50
2022-12-27T20:50:25.308Z,96.50
2022-12-27T20:54:07.985Z,96.50
2022-12-27T20:57:52.808Z,96.40
2022-12-27T21:01:35.108Z,96.40
2022-12-27T21:05:18.699Z,96.40
2022-12-27T21:09:00.862Z,96.40
2022-12-27T21:12:43.065Z,96.40
2022-12-27T21:16:28.108Z,96.40
2022-12-27T21:20:11.837Z,96.40
2022-12-27T21:23:56.752Z,96.40
2022-12-27T21:27:38.755Z,96.40
2022-12-27T21:31:26.454Z,96.40
2022-12-27T21:35:09.169Z,96.30
2022-12-27T21:42:50.441Z,96.30
2022-12-27T21:46:36.601Z,96.30
2022-12-27T21:50:18.855Z,96.30
2022-12-27T21:54:01.594Z,96.30
2022-12-27T21:57:43.952Z,96.20
2022-12-27T22:01:29.837Z,96.20
2022-12-27T22:05:13.077Z,96.20
2022-12-27T22:09:05.785Z,96.20
2022-12-27T22:12:49.934Z,96.20
2022-12-27T22:16:37.991Z,96.10
2022-12-27T22:20:23.910Z,96.10
2022-12-27T22:24:06.537Z,96.10
2022-12-27T22:27:56.016Z,96.10
2022-12-27T22:31:41.111Z,96.00
2022-12-27T22:35:24.309Z,96.10
2022-12-27T22:39:14.338Z,96.10
2022-12-27T22:42:59.150Z,96.10
2022-12-27T22:47:27.964Z,96.10
2022-12-27T22:51:21.723Z,96.10
2022-12-27T22:55:16.436Z,96.10
2022-12-27T22:59:06.236Z,96.20
2022-12-27T23:02:48.888Z,96.10
2022-12-27T23:06:55.468Z,96.10
2022-12-27T23:10:38.178Z,96.20
2022-12-27T23:14:23.858Z,96.20
2022-12-27T23:18:18.978Z,96.20
2022-12-27T23:22:01.205Z,96.20
2022-12-27T23:25:43.188Z,96.20
2022-12-27T23:29:30.069Z,96.20
2022-12-27T23:33:12.765Z,96.20
2022-12-27T23:36:54.877Z,96.20
2022-12-27T23:40:37.117Z,96.20
2022-12-27T23:44:34.438Z,96.30
2022-12-27T23:48:17.619Z,96.30
2022-12-27T23:51:59.676Z,96.30
2022-12-27T23:55:41.867Z,96.30
2022-12-27T23:59:27.047Z,96.30
